sensor_id;sensor_type;location;lat;lon;timestamp;P1;durP1;ratioP1;P2;durP2;ratioP2
7432;SDS011;32233;49.500;7.764;2023-04-24T00:01:42;1.43;;;0.83;;
7432;SDS011;32233;49.500;7.764;2023-04-24T00:04:09;2.90;;;0.80;;
7432;SDS011;32233;49.500;7.764;2023-04-24T00:06:37;2.20;;;1.00;;
7432;SDS011;32233;49.500;7.764;2023-04-24T00:09:04;2.87;;;0.97;;
7432;SDS011;32233;49.500;7.764;2023-04-24T00:11:31;3.67;;;0.73;;
7432;SDS011;32233;49.500;7.764;2023-04-24T00:13:57;1.60;;;0.80;;
7432;SDS011;32233;49.500;7.764;2023-04-24T00:16:24;2.37;;;0.80;;
7432;SDS011;32233;49.500;7.764;2023-04-24T00:18:50;2.67;;;0.80;;
7432;SDS011;32233;49.500;7.764;2023-04-24T00:21:18;3.50;;;1.03;;
7432;SDS011;32233;49.500;7.764;2023-04-24T00:23:45;3.80;;;0.90;;
7432;SDS011;32233;49.500;7.764;2023-04-24T00:26:12;2.77;;;1.23;;
7432;SDS011;32233;49.500;7.764;2023-04-24T00:28:38;3.13;;;0.70;;
7432;SDS011;32233;49.500;7.764;2023-04-24T00:31:05;1.50;;;0.90;;
7432;SDS011;32233;49.500;7.764;2023-04-24T00:33:31;2.10;;;0.80;;
7432;SDS011;32233;49.500;7.764;2023-04-24T00:35:58;2.57;;;0.80;;
7432;SDS011;32233;49.500;7.764;2023-04-24T00:38:25;1.60;;;1.00;;
7432;SDS011;32233;49.500;7.764;2023-04-24T00:40:51;2.03;;;0.80;;
7432;SDS011;32233;49.500;7.764;2023-04-24T00:43:20;4.03;;;0.90;;
7432;SDS011;32233;49.500;7.764;2023-04-24T00:45:46;3.10;;;0.70;;
7432;SDS011;32233;49.500;7.764;2023-04-24T00:48:13;1.73;;;0.80;;
7432;SDS011;32233;49.500;7.764;2023-04-24T00:50:40;2.20;;;0.80;;
7432;SDS011;32233;49.500;7.764;2023-04-24T00:53:08;1.90;;;0.77;;
7432;SDS011;32233;49.500;7.764;2023-04-24T00:55:35;2.03;;;1.20;;
7432;SDS011;32233;49.500;7.764;2023-04-24T00:58:03;2.17;;;0.80;;
7432;SDS011;32233;49.500;7.764;2023-04-24T01:00:31;2.03;;;0.80;;
7432;SDS011;32233;49.500;7.764;2023-04-24T01:02:59;1.93;;;1.10;;
7432;SDS011;32233;49.500;7.764;2023-04-24T01:05:31;3.10;;;0.80;;
7432;SDS011;32233;49.500;7.764;2023-04-24T01:07:58;1.57;;;0.77;;
7432;SDS011;32233;49.500;7.764;2023-04-24T01:10:25;1.53;;;0.70;;
7432;SDS011;32233;49.500;7.764;2023-04-24T01:12:55;2.20;;;0.80;;
7432;SDS011;32233;49.500;7.764;2023-04-24T01:15:21;4.00;;;0.90;;
7432;SDS011;32233;49.500;7.764;2023-04-24T01:17:48;2.03;;;0.90;;
7432;SDS011;32233;49.500;7.764;2023-04-24T01:20:14;2.27;;;0.90;;
7432;SDS011;32233;49.500;7.764;2023-04-24T01:22:42;2.10;;;0.90;;
7432;SDS011;32233;49.500;7.764;2023-04-24T01:25:09;3.93;;;0.80;;
7432;SDS011;32233;49.500;7.764;2023-04-24T01:27:35;1.40;;;0.90;;
7432;SDS011;32233;49.500;7.764;2023-04-24T01:30:03;1.03;;;0.70;;
7432;SDS011;32233;49.500;7.764;2023-04-24T01:32:31;1.70;;;1.10;;
7432;SDS011;32233;49.500;7.764;2023-04-24T01:34:58;1.00;;;0.90;;
7432;SDS011;32233;49.500;7.764;2023-04-24T01:37:25;1.70;;;0.70;;
7432;SDS011;32233;49.500;7.764;2023-04-24T01:39:53;0.83;;;0.83;;
7432;SDS011;32233;49.500;7.764;2023-04-24T01:42:19;3.30;;;0.80;;
7432;SDS011;32233;49.500;7.764;2023-04-24T01:44:46;1.23;;;0.90;;
7432;SDS011;32233;49.500;7.764;2023-04-24T01:47:13;1.33;;;0.93;;
7432;SDS011;32233;49.500;7.764;2023-04-24T01:49:39;0.90;;;0.80;;
7432;SDS011;32233;49.500;7.764;2023-04-24T01:52:07;1.03;;;0.80;;
7432;SDS011;32233;49.500;7.764;2023-04-24T01:54:33;0.80;;;0.80;;
7432;SDS011;32233;49.500;7.764;2023-04-24T01:57:00;0.70;;;0.70;;
7432;SDS011;32233;49.500;7.764;2023-04-24T01:59:28;2.27;;;0.80;;
7432;SDS011;32233;49.500;7.764;2023-04-24T02:01:56;1.53;;;1.03;;
7432;SDS011;32233;49.500;7.764;2023-04-24T02:04:22;2.07;;;1.10;;
7432;SDS011;32233;49.500;7.764;2023-04-24T02:06:49;1.20;;;1.10;;
7432;SDS011;32233;49.500;7.764;2023-04-24T02:09:16;1.53;;;1.30;;
7432;SDS011;32233;49.500;7.764;2023-04-24T02:11:43;1.30;;;1.20;;
7432;SDS011;32233;49.500;7.764;2023-04-24T02:14:09;1.47;;;1.27;;
7432;SDS011;32233;49.500;7.764;2023-04-24T02:16:38;2.13;;;1.57;;
7432;SDS011;32233;49.500;7.764;2023-04-24T02:19:05;1.73;;;1.60;;
7432;SDS011;32233;49.500;7.764;2023-04-24T02:21:32;2.63;;;1.73;;
7432;SDS011;32233;49.500;7.764;2023-04-24T02:24:00;1.67;;;1.57;;
7432;SDS011;32233;49.500;7.764;2023-04-24T02:26:27;1.83;;;1.73;;
7432;SDS011;32233;49.500;7.764;2023-04-24T02:28:54;2.60;;;1.73;;
7432;SDS011;32233;49.500;7.764;2023-04-24T02:31:20;2.10;;;1.90;;
7432;SDS011;32233;49.500;7.764;2023-04-24T02:33:47;2.00;;;1.90;;
7432;SDS011;32233;49.500;7.764;2023-04-24T02:36:13;1.80;;;1.70;;
7432;SDS011;32233;49.500;7.764;2023-04-24T02:38:40;2.07;;;1.87;;
7432;SDS011;32233;49.500;7.764;2023-04-24T02:41:07;3.07;;;2.30;;
7432;SDS011;32233;49.500;7.764;2023-04-24T02:43:33;2.60;;;2.10;;
7432;SDS011;32233;49.500;7.764;2023-04-24T02:46:00;4.13;;;2.40;;
7432;SDS011;32233;49.500;7.764;2023-04-24T02:48:26;2.87;;;2.57;;
7432;SDS011;32233;49.500;7.764;2023-04-24T02:50:53;2.67;;;2.47;;
7432;SDS011;32233;49.500;7.764;2023-04-24T02:53:20;3.03;;;2.47;;
7432;SDS011;32233;49.500;7.764;2023-04-24T02:55:46;4.47;;;2.67;;
7432;SDS011;32233;49.500;7.764;2023-04-24T02:58:13;3.00;;;2.73;;
7432;SDS011;32233;49.500;7.764;2023-04-24T03:00:39;4.07;;;2.70;;
7432;SDS011;32233;49.500;7.764;2023-04-24T03:03:06;3.93;;;2.63;;
7432;SDS011;32233;49.500;7.764;2023-04-24T03:05:33;2.70;;;2.50;;
7432;SDS011;32233;49.500;7.764;2023-04-24T03:08:00;3.60;;;2.77;;
7432;SDS011;32233;49.500;7.764;2023-04-24T03:10:26;2.90;;;2.70;;
7432;SDS011;32233;49.500;7.764;2023-04-24T03:12:53;2.87;;;2.60;;
7432;SDS011;32233;49.500;7.764;2023-04-24T03:15:21;2.70;;;2.50;;
7432;SDS011;32233;49.500;7.764;2023-04-24T03:17:47;2.53;;;2.33;;
7432;SDS011;32233;49.500;7.764;2023-04-24T03:20:14;2.80;;;2.60;;
7432;SDS011;32233;49.500;7.764;2023-04-24T03:22:41;3.83;;;2.50;;
7432;SDS011;32233;49.500;7.764;2023-04-24T03:25:08;3.53;;;3.10;;
7432;SDS011;32233;49.500;7.764;2023-04-24T03:27:36;3.83;;;2.83;;
7432;SDS011;32233;49.500;7.764;2023-04-24T03:30:10;3.47;;;2.73;;
7432;SDS011;32233;49.500;7.764;2023-04-24T03:32:48;5.03;;;3.03;;
7432;SDS011;32233;49.500;7.764;2023-04-24T03:35:19;3.33;;;2.80;;
7432;SDS011;32233;49.500;7.764;2023-04-24T03:37:48;3.30;;;3.00;;
7432;SDS011;32233;49.500;7.764;2023-04-24T03:40:37;3.60;;;3.30;;
7432;SDS011;32233;49.500;7.764;2023-04-24T03:43:13;4.13;;;3.60;;
7432;SDS011;32233;49.500;7.764;2023-04-24T03:45:40;3.63;;;3.37;;
7432;SDS011;32233;49.500;7.764;2023-04-24T03:48:07;4.23;;;3.33;;
7432;SDS011;32233;49.500;7.764;2023-04-24T03:50:34;4.37;;;3.70;;
7432;SDS011;32233;49.500;7.764;2023-04-24T03:53:00;3.60;;;3.30;;
7432;SDS011;32233;49.500;7.764;2023-04-24T03:55:36;4.37;;;3.77;;
7432;SDS011;32233;49.500;7.764;2023-04-24T03:58:03;4.60;;;3.50;;
7432;SDS011;32233;49.500;7.764;2023-04-24T04:00:29;4.23;;;3.83;;
7432;SDS011;32233;49.500;7.764;2023-04-24T04:03:17;5.70;;;4.50;;
7432;SDS011;32233;49.500;7.764;2023-04-24T04:05:44;4.70;;;4.30;;
7432;SDS011;32233;49.500;7.764;2023-04-24T04:08:11;5.57;;;4.97;;
7432;SDS011;32233;49.500;7.764;2023-04-24T04:10:38;8.23;;;5.10;;
7432;SDS011;32233;49.500;7.764;2023-04-24T04:13:04;5.80;;;4.93;;
7432;SDS011;32233;49.500;7.764;2023-04-24T04:15:32;5.87;;;4.30;;
7432;SDS011;32233;49.500;7.764;2023-04-24T04:17:59;9.43;;;4.67;;
7432;SDS011;32233;49.500;7.764;2023-04-24T04:20:26;5.97;;;4.37;;
7432;SDS011;32233;49.500;7.764;2023-04-24T04:22:52;5.23;;;4.40;;
7432;SDS011;32233;49.500;7.764;2023-04-24T04:25:27;6.23;;;4.70;;
7432;SDS011;32233;49.500;7.764;2023-04-24T04:27:53;4.77;;;4.30;;
7432;SDS011;32233;49.500;7.764;2023-04-24T04:30:20;4.53;;;4.13;;
7432;SDS011;32233;49.500;7.764;2023-04-24T04:32:54;5.87;;;4.77;;
7432;SDS011;32233;49.500;7.764;2023-04-24T04:35:21;6.03;;;4.77;;
7432;SDS011;32233;49.500;7.764;2023-04-24T04:37:50;6.27;;;4.90;;
7432;SDS011;32233;49.500;7.764;2023-04-24T04:40:36;5.27;;;4.77;;
7432;SDS011;32233;49.500;7.764;2023-04-24T04:43:04;6.10;;;5.10;;
7432;SDS011;32233;49.500;7.764;2023-04-24T04:45:39;6.63;;;4.73;;
7432;SDS011;32233;49.500;7.764;2023-04-24T04:48:26;6.97;;;5.23;;
7432;SDS011;32233;49.500;7.764;2023-04-24T04:50:55;6.67;;;4.83;;
7432;SDS011;32233;49.500;7.764;2023-04-24T04:53:23;5.37;;;4.87;;
7432;SDS011;32233;49.500;7.764;2023-04-24T04:55:50;6.50;;;5.90;;
7432;SDS011;32233;49.500;7.764;2023-04-24T04:58:18;6.07;;;5.43;;
7432;SDS011;32233;49.500;7.764;2023-04-24T05:00:47;6.23;;;5.57;;
7432;SDS011;32233;49.500;7.764;2023-04-24T05:03:36;5.67;;;5.17;;
7432;SDS011;32233;49.500;7.764;2023-04-24T05:06:07;8.83;;;5.97;;
7432;SDS011;32233;49.500;7.764;2023-04-24T05:08:36;6.27;;;5.67;;
7432;SDS011;32233;49.500;7.764;2023-04-24T05:11:06;6.33;;;5.60;;
7432;SDS011;32233;49.500;7.764;2023-04-24T05:13:33;8.93;;;5.87;;
7432;SDS011;32233;49.500;7.764;2023-04-24T05:16:26;6.67;;;5.30;;
7432;SDS011;32233;49.500;7.764;2023-04-24T05:18:55;7.83;;;5.63;;
7432;SDS011;32233;49.500;7.764;2023-04-24T05:21:27;6.23;;;5.60;;
7432;SDS011;32233;49.500;7.764;2023-04-24T05:23:54;9.77;;;6.80;;
7432;SDS011;32233;49.500;7.764;2023-04-24T05:26:47;6.80;;;6.07;;
7432;SDS011;32233;49.500;7.764;2023-04-24T05:29:17;9.93;;;7.60;;
7432;SDS011;32233;49.500;7.764;2023-04-24T05:31:45;8.43;;;6.60;;
7432;SDS011;32233;49.500;7.764;2023-04-24T05:34:11;10.83;;;7.53;;
7432;SDS011;32233;49.500;7.764;2023-04-24T05:36:42;8.17;;;6.70;;
7432;SDS011;32233;49.500;7.764;2023-04-24T05:39:09;7.20;;;5.90;;
7432;SDS011;32233;49.500;7.764;2023-04-24T05:41:35;11.47;;;7.10;;
7432;SDS011;32233;49.500;7.764;2023-04-24T05:44:02;8.97;;;6.43;;
7432;SDS011;32233;49.500;7.764;2023-04-24T05:46:28;6.57;;;5.87;;
7432;SDS011;32233;49.500;7.764;2023-04-24T05:48:55;10.10;;;7.10;;
7432;SDS011;32233;49.500;7.764;2023-04-24T05:51:23;8.43;;;6.87;;
7432;SDS011;32233;49.500;7.764;2023-04-24T05:53:50;7.83;;;6.33;;
7432;SDS011;32233;49.500;7.764;2023-04-24T05:56:16;7.90;;;5.90;;
7432;SDS011;32233;49.500;7.764;2023-04-24T05:58:45;8.07;;;5.97;;
7432;SDS011;32233;49.500;7.764;2023-04-24T06:01:13;9.27;;;5.67;;
7432;SDS011;32233;49.500;7.764;2023-04-24T06:03:46;6.67;;;5.93;;
7432;SDS011;32233;49.500;7.764;2023-04-24T06:06:13;7.10;;;6.40;;
7432;SDS011;32233;49.500;7.764;2023-04-24T06:08:40;6.23;;;5.63;;
7432;SDS011;32233;49.500;7.764;2023-04-24T06:11:08;5.97;;;4.83;;
7432;SDS011;32233;49.500;7.764;2023-04-24T06:13:36;7.07;;;5.27;;
7432;SDS011;32233;49.500;7.764;2023-04-24T06:16:23;4.77;;;4.20;;
7432;SDS011;32233;49.500;7.764;2023-04-24T06:18:56;5.23;;;4.60;;
7432;SDS011;32233;49.500;7.764;2023-04-24T06:21:23;4.80;;;4.30;;
7432;SDS011;32233;49.500;7.764;2023-04-24T06:23:50;7.03;;;4.33;;
7432;SDS011;32233;49.500;7.764;2023-04-24T06:26:16;4.37;;;3.63;;
7432;SDS011;32233;49.500;7.764;2023-04-24T06:28:43;4.27;;;3.87;;
7432;SDS011;32233;49.500;7.764;2023-04-24T06:31:09;3.80;;;3.33;;
7432;SDS011;32233;49.500;7.764;2023-04-24T06:33:36;4.03;;;3.27;;
7432;SDS011;32233;49.500;7.764;2023-04-24T06:36:02;3.93;;;3.60;;
7432;SDS011;32233;49.500;7.764;2023-04-24T06:38:30;4.07;;;3.60;;
7432;SDS011;32233;49.500;7.764;2023-04-24T06:40:56;5.97;;;3.50;;
7432;SDS011;32233;49.500;7.764;2023-04-24T06:43:23;4.00;;;3.60;;
7432;SDS011;32233;49.500;7.764;2023-04-24T06:45:49;4.30;;;3.00;;
7432;SDS011;32233;49.500;7.764;2023-04-24T06:48:16;3.97;;;3.57;;
7432;SDS011;32233;49.500;7.764;2023-04-24T06:50:42;3.70;;;3.40;;
7432;SDS011;32233;49.500;7.764;2023-04-24T06:53:09;4.30;;;3.90;;
7432;SDS011;32233;49.500;7.764;2023-04-24T06:55:37;4.10;;;3.70;;
7432;SDS011;32233;49.500;7.764;2023-04-24T06:58:04;4.07;;;3.77;;
7432;SDS011;32233;49.500;7.764;2023-04-24T07:00:30;4.73;;;3.40;;
7432;SDS011;32233;49.500;7.764;2023-04-24T07:02:57;4.73;;;3.30;;
7432;SDS011;32233;49.500;7.764;2023-04-24T07:05:24;5.17;;;2.87;;
7432;SDS011;32233;49.500;7.764;2023-04-24T07:07:50;2.63;;;2.43;;
7432;SDS011;32233;49.500;7.764;2023-04-24T07:10:17;2.37;;;2.20;;
7432;SDS011;32233;49.500;7.764;2023-04-24T07:12:44;2.63;;;2.40;;
7432;SDS011;32233;49.500;7.764;2023-04-24T07:15:10;2.60;;;2.40;;
7432;SDS011;32233;49.500;7.764;2023-04-24T07:17:37;2.27;;;2.13;;
7432;SDS011;32233;49.500;7.764;2023-04-24T07:20:04;2.10;;;2.00;;
7432;SDS011;32233;49.500;7.764;2023-04-24T07:22:33;1.90;;;1.80;;
7432;SDS011;32233;49.500;7.764;2023-04-24T07:24:59;2.50;;;2.30;;
7432;SDS011;32233;49.500;7.764;2023-04-24T07:27:26;2.40;;;2.20;;
7432;SDS011;32233;49.500;7.764;2023-04-24T07:29:52;2.30;;;2.10;;
7432;SDS011;32233;49.500;7.764;2023-04-24T07:32:19;2.60;;;2.40;;
7432;SDS011;32233;49.500;7.764;2023-04-24T07:34:46;2.77;;;2.57;;
7432;SDS011;32233;49.500;7.764;2023-04-24T07:37:12;3.50;;;2.63;;
7432;SDS011;32233;49.500;7.764;2023-04-24T07:39:39;3.27;;;2.83;;
7432;SDS011;32233;49.500;7.764;2023-04-24T07:42:06;3.40;;;3.20;;
7432;SDS011;32233;49.500;7.764;2023-04-24T07:44:32;4.07;;;3.20;;
7432;SDS011;32233;49.500;7.764;2023-04-24T07:46:59;3.80;;;3.37;;
7432;SDS011;32233;49.500;7.764;2023-04-24T07:49:26;2.80;;;2.60;;
7432;SDS011;32233;49.500;7.764;2023-04-24T07:51:53;3.70;;;3.33;;
7432;SDS011;32233;49.500;7.764;2023-04-24T07:54:20;3.10;;;2.80;;
7432;SDS011;32233;49.500;7.764;2023-04-24T07:56:47;3.10;;;2.80;;
7432;SDS011;32233;49.500;7.764;2023-04-24T07:59:14;4.10;;;2.60;;
7432;SDS011;32233;49.500;7.764;2023-04-24T08:01:40;2.90;;;2.70;;
7432;SDS011;32233;49.500;7.764;2023-04-24T08:04:07;3.53;;;3.13;;
7432;SDS011;32233;49.500;7.764;2023-04-24T08:06:34;3.50;;;3.07;;
7432;SDS011;32233;49.500;7.764;2023-04-24T08:09:00;5.07;;;2.97;;
7432;SDS011;32233;49.500;7.764;2023-04-24T08:11:27;3.37;;;2.80;;
7432;SDS011;32233;49.500;7.764;2023-04-24T08:13:54;3.60;;;3.30;;
7432;SDS011;32233;49.500;7.764;2023-04-24T08:16:21;3.10;;;2.80;;
7432;SDS011;32233;49.500;7.764;2023-04-24T08:18:50;2.80;;;2.60;;
7432;SDS011;32233;49.500;7.764;2023-04-24T08:21:17;3.47;;;3.17;;
7432;SDS011;32233;49.500;7.764;2023-04-24T08:23:44;3.50;;;3.20;;
7432;SDS011;32233;49.500;7.764;2023-04-24T08:26:12;4.73;;;3.27;;
7432;SDS011;32233;49.500;7.764;2023-04-24T08:28:38;6.10;;;4.13;;
7432;SDS011;32233;49.500;7.764;2023-04-24T08:31:05;4.20;;;3.80;;
7432;SDS011;32233;49.500;7.764;2023-04-24T08:33:32;4.23;;;3.83;;
7432;SDS011;32233;49.500;7.764;2023-04-24T08:36:04;4.23;;;3.57;;
7432;SDS011;32233;49.500;7.764;2023-04-24T08:38:32;4.00;;;3.60;;
7432;SDS011;32233;49.500;7.764;2023-04-24T08:41:01;3.53;;;3.07;;
7432;SDS011;32233;49.500;7.764;2023-04-24T08:43:28;3.90;;;3.30;;
7432;SDS011;32233;49.500;7.764;2023-04-24T08:45:56;3.63;;;3.33;;
7432;SDS011;32233;49.500;7.764;2023-04-24T08:48:23;3.53;;;3.00;;
7432;SDS011;32233;49.500;7.764;2023-04-24T08:50:57;4.17;;;3.77;;
7432;SDS011;32233;49.500;7.764;2023-04-24T08:53:24;3.60;;;3.30;;
7432;SDS011;32233;49.500;7.764;2023-04-24T08:55:52;5.03;;;3.97;;
7432;SDS011;32233;49.500;7.764;2023-04-24T08:58:21;5.20;;;4.70;;
7432;SDS011;32233;49.500;7.764;2023-04-24T09:00:51;7.50;;;5.63;;
7432;SDS011;32233;49.500;7.764;2023-04-24T09:03:20;6.00;;;4.93;;
7432;SDS011;32233;49.500;7.764;2023-04-24T09:05:48;6.10;;;4.50;;
7432;SDS011;32233;49.500;7.764;2023-04-24T09:08:22;4.47;;;3.87;;
7432;SDS011;32233;49.500;7.764;2023-04-24T09:10:51;4.57;;;4.03;;
7432;SDS011;32233;49.500;7.764;2023-04-24T09:13:18;4.73;;;3.83;;
7432;SDS011;32233;49.500;7.764;2023-04-24T09:15:46;5.43;;;3.63;;
7432;SDS011;32233;49.500;7.764;2023-04-24T09:18:13;4.93;;;3.43;;
7432;SDS011;32233;49.500;7.764;2023-04-24T09:23:30;3.47;;;3.17;;
7432;SDS011;32233;49.500;7.764;2023-04-24T09:25:58;4.20;;;3.80;;
7432;SDS011;32233;49.500;7.764;2023-04-24T09:28:32;3.87;;;3.60;;
7432;SDS011;32233;49.500;7.764;2023-04-24T09:33:35;4.17;;;2.87;;
7432;SDS011;32233;49.500;7.764;2023-04-24T09:36:03;3.50;;;3.20;;
7432;SDS011;32233;49.500;7.764;2023-04-24T09:38:33;3.70;;;2.97;;
7432;SDS011;32233;49.500;7.764;2023-04-24T09:41:04;4.73;;;3.20;;
7432;SDS011;32233;49.500;7.764;2023-04-24T09:43:33;6.70;;;3.80;;
7432;SDS011;32233;49.500;7.764;2023-04-24T09:46:05;5.10;;;3.30;;
7432;SDS011;32233;49.500;7.764;2023-04-24T09:48:35;5.63;;;4.13;;
7432;SDS011;32233;49.500;7.764;2023-04-24T09:51:04;4.70;;;4.37;;
7432;SDS011;32233;49.500;7.764;2023-04-24T09:53:33;4.87;;;4.17;;
7432;SDS011;32233;49.500;7.764;2023-04-24T09:56:06;6.13;;;4.37;;
7432;SDS011;32233;49.500;7.764;2023-04-24T09:58:38;4.67;;;3.87;;
7432;SDS011;32233;49.500;7.764;2023-04-24T10:01:05;5.03;;;4.53;;
7432;SDS011;32233;49.500;7.764;2023-04-24T10:03:32;5.20;;;4.70;;
7432;SDS011;32233;49.500;7.764;2023-04-24T10:06:00;6.77;;;4.80;;
7432;SDS011;32233;49.500;7.764;2023-04-24T10:08:34;4.83;;;4.43;;
7432;SDS011;32233;49.500;7.764;2023-04-24T10:11:02;4.43;;;4.03;;
7432;SDS011;32233;49.500;7.764;2023-04-24T10:13:29;5.27;;;3.93;;
7432;SDS011;32233;49.500;7.764;2023-04-24T10:15:56;5.23;;;3.80;;
7432;SDS011;32233;49.500;7.764;2023-04-24T10:18:26;5.77;;;4.47;;
7432;SDS011;32233;49.500;7.764;2023-04-24T10:20:53;6.73;;;4.60;;
7432;SDS011;32233;49.500;7.764;2023-04-24T10:23:21;7.10;;;4.17;;
7432;SDS011;32233;49.500;7.764;2023-04-24T10:25:49;5.50;;;4.47;;
7432;SDS011;32233;49.500;7.764;2023-04-24T10:28:17;5.33;;;4.13;;
7432;SDS011;32233;49.500;7.764;2023-04-24T10:30:44;4.47;;;4.07;;
7432;SDS011;32233;49.500;7.764;2023-04-24T10:33:11;5.50;;;4.57;;
7432;SDS011;32233;49.500;7.764;2023-04-24T10:35:41;6.20;;;4.40;;
7432;SDS011;32233;49.500;7.764;2023-04-24T10:38:12;5.17;;;4.53;;
7432;SDS011;32233;49.500;7.764;2023-04-24T10:40:40;6.30;;;5.03;;
7432;SDS011;32233;49.500;7.764;2023-04-24T10:43:08;6.60;;;5.23;;
7432;SDS011;32233;49.500;7.764;2023-04-24T10:45:37;7.73;;;6.03;;
7432;SDS011;32233;49.500;7.764;2023-04-24T10:48:05;5.63;;;5.10;;
7432;SDS011;32233;49.500;7.764;2023-04-24T10:50:53;6.90;;;5.00;;
7432;SDS011;32233;49.500;7.764;2023-04-24T10:53:20;5.60;;;4.87;;
7432;SDS011;32233;49.500;7.764;2023-04-24T10:56:03;7.00;;;5.33;;
7432;SDS011;32233;49.500;7.764;2023-04-24T10:58:45;7.57;;;4.97;;
7432;SDS011;32233;49.500;7.764;2023-04-24T11:01:26;6.40;;;4.70;;
7432;SDS011;32233;49.500;7.764;2023-04-24T11:03:57;5.33;;;4.93;;
7432;SDS011;32233;49.500;7.764;2023-04-24T11:06:37;7.40;;;5.17;;
7432;SDS011;32233;49.500;7.764;2023-04-24T11:09:07;6.97;;;5.30;;
7432;SDS011;32233;49.500;7.764;2023-04-24T11:11:36;5.27;;;4.77;;
7432;SDS011;32233;49.500;7.764;2023-04-24T11:14:04;6.13;;;5.20;;
7432;SDS011;32233;49.500;7.764;2023-04-24T11:16:34;6.03;;;5.43;;
7432;SDS011;32233;49.500;7.764;2023-04-24T11:19:08;7.50;;;4.87;;
7432;SDS011;32233;49.500;7.764;2023-04-24T11:27:19;5.60;;;5.10;;
7432;SDS011;32233;49.500;7.764;2023-04-24T11:32:27;7.17;;;5.03;;
7432;SDS011;32233;49.500;7.764;2023-04-24T11:35:01;6.10;;;5.03;;
7432;SDS011;32233;49.500;7.764;2023-04-24T11:37:35;5.10;;;4.63;;
7432;SDS011;32233;49.500;7.764;2023-04-24T11:40:04;5.30;;;4.50;;
7432;SDS011;32233;49.500;7.764;2023-04-24T11:42:34;6.63;;;4.63;;
7432;SDS011;32233;49.500;7.764;2023-04-24T11:45:01;6.17;;;4.30;;
7432;SDS011;32233;49.500;7.764;2023-04-24T11:47:33;4.53;;;4.10;;
7432;SDS011;32233;49.500;7.764;2023-04-24T11:50:00;4.77;;;4.20;;
7432;SDS011;32233;49.500;7.764;2023-04-24T11:52:29;6.93;;;4.80;;
7432;SDS011;32233;49.500;7.764;2023-04-24T11:54:56;6.13;;;4.40;;
7432;SDS011;32233;49.500;7.764;2023-04-24T11:57:24;4.70;;;4.30;;
7432;SDS011;32233;49.500;7.764;2023-04-24T11:59:55;6.63;;;4.77;;
7432;SDS011;32233;49.500;7.764;2023-04-24T12:02:25;5.00;;;4.47;;
7432;SDS011;32233;49.500;7.764;2023-04-24T12:04:53;6.23;;;4.60;;
7432;SDS011;32233;49.500;7.764;2023-04-24T12:07:21;5.80;;;4.40;;
7432;SDS011;32233;49.500;7.764;2023-04-24T12:09:54;6.57;;;4.90;;
7432;SDS011;32233;49.500;7.764;2023-04-24T12:12:24;5.00;;;4.50;;
7432;SDS011;32233;49.500;7.764;2023-04-24T12:14:53;4.60;;;4.20;;
7432;SDS011;32233;49.500;7.764;2023-04-24T12:17:31;6.10;;;4.70;;
7432;SDS011;32233;49.500;7.764;2023-04-24T12:22:48;5.97;;;5.23;;
7432;SDS011;32233;49.500;7.764;2023-04-24T12:25:17;7.10;;;4.73;;
7432;SDS011;32233;49.500;7.764;2023-04-24T12:27:45;6.77;;;5.00;;
7432;SDS011;32233;49.500;7.764;2023-04-24T12:30:13;5.40;;;4.90;;
7432;SDS011;32233;49.500;7.764;2023-04-24T12:32:42;5.23;;;4.73;;
7432;SDS011;32233;49.500;7.764;2023-04-24T12:35:10;5.27;;;4.83;;
7432;SDS011;32233;49.500;7.764;2023-04-24T12:37:36;4.30;;;3.70;;
7432;SDS011;32233;49.500;7.764;2023-04-24T12:40:06;5.67;;;4.27;;
7432;SDS011;32233;49.500;7.764;2023-04-24T12:42:35;5.20;;;4.70;;
7432;SDS011;32233;49.500;7.764;2023-04-24T12:45:07;5.20;;;4.47;;
7432;SDS011;32233;49.500;7.764;2023-04-24T12:47:34;4.07;;;3.73;;
7432;SDS011;32233;49.500;7.764;2023-04-24T12:50:01;7.17;;;4.07;;
7432;SDS011;32233;49.500;7.764;2023-04-24T12:52:29;4.60;;;4.20;;
7432;SDS011;32233;49.500;7.764;2023-04-24T12:54:57;5.10;;;4.57;;
7432;SDS011;32233;49.500;7.764;2023-04-24T12:57:26;5.13;;;4.53;;
7432;SDS011;32233;49.500;7.764;2023-04-24T12:59:54;6.33;;;4.30;;
7432;SDS011;32233;49.500;7.764;2023-04-24T13:02:22;5.93;;;4.87;;
7432;SDS011;32233;49.500;7.764;2023-04-24T13:04:50;6.67;;;4.70;;
7432;SDS011;32233;49.500;7.764;2023-04-24T13:07:17;7.63;;;4.10;;
7432;SDS011;32233;49.500;7.764;2023-04-24T13:09:44;4.43;;;4.03;;
7432;SDS011;32233;49.500;7.764;2023-04-24T13:12:13;5.23;;;4.73;;
7432;SDS011;32233;49.500;7.764;2023-04-24T13:14:40;6.87;;;4.80;;
7432;SDS011;32233;49.500;7.764;2023-04-24T13:17:07;8.90;;;5.07;;
7432;SDS011;32233;49.500;7.764;2023-04-24T13:19:37;6.33;;;5.70;;
7432;SDS011;32233;49.500;7.764;2023-04-24T13:22:05;5.83;;;5.33;;
7432;SDS011;32233;49.500;7.764;2023-04-24T13:24:32;5.73;;;4.73;;
7432;SDS011;32233;49.500;7.764;2023-04-24T13:26:59;4.67;;;4.23;;
7432;SDS011;32233;49.500;7.764;2023-04-24T13:29:26;4.90;;;3.63;;
7432;SDS011;32233;49.500;7.764;2023-04-24T13:31:53;4.67;;;4.27;;
7432;SDS011;32233;49.500;7.764;2023-04-24T13:34:24;3.63;;;3.33;;
7432;SDS011;32233;49.500;7.764;2023-04-24T13:36:52;5.97;;;4.43;;
7432;SDS011;32233;49.500;7.764;2023-04-24T13:39:20;5.10;;;4.60;;
7432;SDS011;32233;49.500;7.764;2023-04-24T13:41:47;6.00;;;5.10;;
7432;SDS011;32233;49.500;7.764;2023-04-24T13:44:15;5.00;;;4.60;;
7432;SDS011;32233;49.500;7.764;2023-04-24T13:46:42;5.80;;;5.20;;
7432;SDS011;32233;49.500;7.764;2023-04-24T13:49:11;5.67;;;5.17;;
7432;SDS011;32233;49.500;7.764;2023-04-24T13:51:39;7.13;;;5.37;;
7432;SDS011;32233;49.500;7.764;2023-04-24T13:54:06;7.17;;;5.53;;
7432;SDS011;32233;49.500;7.764;2023-04-24T13:56:32;6.40;;;5.43;;
7432;SDS011;32233;49.500;7.764;2023-04-24T13:58:59;7.97;;;5.37;;
7432;SDS011;32233;49.500;7.764;2023-04-24T14:01:26;6.30;;;5.70;;
7432;SDS011;32233;49.500;7.764;2023-04-24T14:03:53;5.00;;;4.60;;
7432;SDS011;32233;49.500;7.764;2023-04-24T14:06:22;6.27;;;3.77;;
7432;SDS011;32233;49.500;7.764;2023-04-24T14:08:49;4.63;;;3.67;;
7432;SDS011;32233;49.500;7.764;2023-04-24T14:11:16;3.67;;;3.37;;
7432;SDS011;32233;49.500;7.764;2023-04-24T14:13:43;4.90;;;4.00;;
7432;SDS011;32233;49.500;7.764;2023-04-24T14:16:11;4.23;;;3.90;;
7432;SDS011;32233;49.500;7.764;2023-04-24T14:18:38;4.23;;;3.83;;
7432;SDS011;32233;49.500;7.764;2023-04-24T14:21:05;4.50;;;4.10;;
7432;SDS011;32233;49.500;7.764;2023-04-24T14:23:32;3.90;;;3.60;;
7432;SDS011;32233;49.500;7.764;2023-04-24T14:25:58;3.00;;;2.77;;
7432;SDS011;32233;49.500;7.764;2023-04-24T14:28:25;2.43;;;2.23;;
7432;SDS011;32233;49.500;7.764;2023-04-24T14:30:52;2.63;;;2.10;;
7432;SDS011;32233;49.500;7.764;2023-04-24T14:33:19;2.60;;;2.40;;
7432;SDS011;32233;49.500;7.764;2023-04-24T14:35:46;2.60;;;2.40;;
7432;SDS011;32233;49.500;7.764;2023-04-24T14:38:14;3.50;;;3.20;;
7432;SDS011;32233;49.500;7.764;2023-04-24T14:40:49;4.13;;;3.73;;
7432;SDS011;32233;49.500;7.764;2023-04-24T14:43:19;4.53;;;4.13;;
7432;SDS011;32233;49.500;7.764;2023-04-24T14:45:45;5.83;;;4.20;;
7432;SDS011;32233;49.500;7.764;2023-04-24T14:48:12;5.33;;;4.57;;
7432;SDS011;32233;49.500;7.764;2023-04-24T14:50:39;5.70;;;3.83;;
7432;SDS011;32233;49.500;7.764;2023-04-24T14:53:05;4.30;;;3.50;;
7432;SDS011;32233;49.500;7.764;2023-04-24T14:55:32;5.73;;;4.10;;
7432;SDS011;32233;49.500;7.764;2023-04-24T14:58:00;3.83;;;3.50;;
7432;SDS011;32233;49.500;7.764;2023-04-24T15:00:27;4.57;;;4.10;;
7432;SDS011;32233;49.500;7.764;2023-04-24T15:02:54;5.63;;;3.43;;
7432;SDS011;32233;49.500;7.764;2023-04-24T15:05:21;3.77;;;3.47;;
7432;SDS011;32233;49.500;7.764;2023-04-24T15:07:49;6.73;;;4.33;;
7432;SDS011;32233;49.500;7.764;2023-04-24T15:10:18;5.13;;;3.47;;
7432;SDS011;32233;49.500;7.764;2023-04-24T15:12:48;3.70;;;3.40;;
7432;SDS011;32233;49.500;7.764;2023-04-24T15:15:15;3.43;;;3.13;;
7432;SDS011;32233;49.500;7.764;2023-04-24T15:17:41;3.47;;;3.20;;
7432;SDS011;32233;49.500;7.764;2023-04-24T15:20:08;4.00;;;3.67;;
7432;SDS011;32233;49.500;7.764;2023-04-24T15:22:35;4.07;;;3.77;;
7432;SDS011;32233;49.500;7.764;2023-04-24T15:25:01;4.40;;;4.00;;